Jessica Lyn — WDC4973 — position and weather

sailwx.info

Track history (hours):
 
Tides and Currents Weather Stations Pressure Air Temp Water Temp Dewpoint Dewpoint Depression Visibility Wind Speed Wind Dir Waves Ship Positions

Jessica Lyn

Owner: Peninsula Bay Enterprises, Crystal beach, TX. More information available from US FCC via Universal Licensing System and Coast Guard Vessel Documentation Center.

Last reported at 2017-Dec-10 23:04 UTC. Time now 2017-Dec-12 21:56 UTC.
Position N 29°43' W 095°01'.

Type: Fishing. MMSI: 367033730.

Date/timePositionNaut miles runAvg speedWind from/ knotsBaromVisibWave heightAir tempDewpointWater temp
2017-Dec-10 23:04N 29°43' W 095°01'0 6.8
2017-Dec-10 23:00N 29°42' W 095°01'3 6.3
2017-Dec-10 22:31N 29°40' W 094°58'4 7.2
2017-Dec-10 22:01N 29°37' W 094°57'4 7.4
2017-Dec-10 21:31N 29°34' W 094°55'1 0.0
2017-Dec-09 02:56N 29°32' W 094°54'1 3.5
2017-Dec-09 02:30N 29°34' W 094°55'2 3.8
2017-Dec-09 02:00N 29°35' W 094°56'2 3.9
2017-Dec-09 01:30N 29°37' W 094°57'2 3.9
2017-Dec-09 01:00N 29°39' W 094°58'1 2.8
2017-Dec-09 00:30N 29°40' W 094°59'2 4.6
2017-Dec-09 00:00N 29°42' W 094°60'2 4.2
2017-Dec-08 23:25N 29°44' W 095°02'3 4.2
2017-Dec-08 22:46N 29°45' W 095°04'1 3.6
2017-Dec-08 22:26N 29°45' W 095°06'8 0.3
2017-Dec-07 20:48N 29°43' W 095°14'11 5.7
2017-Dec-07 18:55N 29°44' W 095°02'3 5.9
2017-Dec-07 18:29N 29°42' W 094°60'3 6.5
2017-Dec-07 18:00N 29°39' W 094°58'4 7.2
2017-Dec-07 17:30N 29°36' W 094°57'4 6.7
2017-Dec-07 16:55N 29°32' W 094°54'  
2017-Dec-03 01:42N 29°26' W 094°42'  
Track history (hours):
 
Tides and Currents Weather Stations Pressure Air Temp Water Temp Dewpoint Dewpoint Depression Visibility Wind Speed Wind Dir Waves Ship Positions

Jessica Lyn

Owner: Peninsula Bay Enterprises, Crystal beach, TX. More information available from US FCC via Universal Licensing System and Coast Guard Vessel Documentation Center.

Last reported at 2017-Dec-10 23:04 UTC. Time now 2017-Dec-12 21:56 UTC.
Position N 29°43' W 095°01'.

Type: Fishing. MMSI: 367033730.

Date/timePositionNaut miles runAvg speedWind from/ knotsBaromVisibWave heightAir tempDewpointWater temp
2017-Dec-10 23:04N 29°43' W 095°01'0 6.8
2017-Dec-10 23:00N 29°42' W 095°01'3 6.3
2017-Dec-10 22:31N 29°40' W 094°58'4 7.2
2017-Dec-10 22:01N 29°37' W 094°57'4 7.4
2017-Dec-10 21:31N 29°34' W 094°55'1 0.0
2017-Dec-09 02:56N 29°32' W 094°54'1 3.5
2017-Dec-09 02:30N 29°34' W 094°55'2 3.8
2017-Dec-09 02:00N 29°35' W 094°56'2 3.9
2017-Dec-09 01:30N 29°37' W 094°57'2 3.9
2017-Dec-09 01:00N 29°39' W 094°58'1 2.8
2017-Dec-09 00:30N 29°40' W 094°59'2 4.6
2017-Dec-09 00:00N 29°42' W 094°60'2 4.2
2017-Dec-08 23:25N 29°44' W 095°02'3 4.2
2017-Dec-08 22:46N 29°45' W 095°04'1 3.6
2017-Dec-08 22:26N 29°45' W 095°06'8 0.3
2017-Dec-07 20:48N 29°43' W 095°14'11 5.7
2017-Dec-07 18:55N 29°44' W 095°02'3 5.9
2017-Dec-07 18:29N 29°42' W 094°60'3 6.5
2017-Dec-07 18:00N 29°39' W 094°58'4 7.2
2017-Dec-07 17:30N 29°36' W 094°57'4 6.7
2017-Dec-07 16:55N 29°32' W 094°54'  
2017-Dec-03 01:42N 29°26' W 094°42'  

Dump ship's entire track history